Airfield :
LOGIN :

Register | Disclaimer

   EN    FR    IT 

 










Legend :    VFR   Marginal VFR   IFR   Intensive IFR   Very Intensive IFR
Visi :
Ceiling :
>= 8 km
>= 3000ft
5 to 8 km
1000 to 3000 ft
1500m to 5 km
500 to 1000 ft
800 to 1500m
200 to 500 ft
< 800m
< 200 ft
Symbols :   Thunderstorms  Fog  Heavy snow  Heavy precipitations  Wind > 20 kt
SIGMETs :     Misc.  Thunderstorms  Icing  Turbulence  Mountain Waves  Volcanic Ashes






- Airport Elevation : 1966 ft
- IATA code : SGE


EDGS - Siegerland

CURRENT METAR :
  • 101220Z 22007KT 190V250 9999 FEW008 SCT012 02/M00 Q1023

EXPIRED METARs :
  • 101150Z 22008KT 9999 FEW007 SCT011 02/M00 Q1024
  • 101120Z 22007KT 9999 FEW003 SCT006 01/00 Q1024
  • 101050Z 24006KT 9999 FEW001 BKN004 01/00 Q1024
  • 101020Z 24005KT 8000 2200W BCFG SCT002 BKN004 01/M00 Q1025
  • 100950Z 23006KT 7000 2200W BCFG SCT002 BKN004 00/M00 Q1025

TAF COR TAF EDGS
Valid from the 10 at 12:00 until the 10 at 21:00 UTC


101136Z 1012/1021 24008KT 9999 FEW003 SCT006
PROB30
TEMPO 1015/1020 BKN006



MET'MAP, your aeronautical weather chart ! - Copyright ORBIFLY December 2007 - Disclaimer

ORBIFLY MET'MAP TEAM :

Programming & Development : Alexandra Zaïnal
Concept & original design : Baudouin d'Aumeries
Assistance for programming : Marc-Olivier Méhu
Technical & hardware support : Manuel Goepfert

Contact : metmap@orbifly.com




SOURCES & CREDITS :

   NOAA